Time;durP1;ratioP1;P1;durP2;ratioP2;P2;SDS_P1;SDS_P2;PMS_P1;PMS_P2;Temp;Humidity;BMP_temperature;BMP_pressure;BME280_temperature;BME280_humidity;BME280_pressure;Samples;Min_cycle;Max_cycle;Signal;HPM_P1;HPM_P2
2022/04/20 00:01:53;;;;;;;5.70;2.20;;;;;;;;;;10448877;28;20473;-41
2022/04/20 00:06:54;;;;;;;8.15;2.35;;;;;;;;;;10449055;28;20071;-42
2022/04/20 00:11:54;;;;;;;4.43;2.45;;;;;;;;;;10449113;28;20028;-43
2022/04/20 00:16:55;;;;;;;3.85;2.15;;;;;;;;;;10448600;28;20025;-42
2022/04/20 00:21:55;;;;;;;5.95;2.40;;;;;;;;;;10448642;28;20029;-45
2022/04/20 00:26:56;;;;;;;4.32;2.65;;;;;;;;;;10448680;28;20029;-47
2022/04/20 00:31:56;;;;;;;4.07;2.05;;;;;;;;;;10448689;28;20075;-41
2022/04/20 00:36:58;;;;;;;3.40;2.00;;;;;;;;;;10448068;28;20040;-42
2022/04/20 00:41:59;;;;;;;2.50;1.80;;;;;;;;;;10431065;28;20029;-43
2022/04/20 00:47:02;;;;;;;3.72;1.90;;;;;;;;;;10437891;28;20164;-42
2022/04/20 00:52:04;;;;;;;4.35;2.25;;;;;;;;;;10437856;28;20059;-41
2022/04/20 00:57:05;;;;;;;4.25;2.60;;;;;;;;;;10455059;28;20057;-43
2022/04/20 01:02:06;;;;;;;5.30;2.30;;;;;;;;;;10454986;28;20090;-49
2022/04/20 01:07:15;;;;;;;5.32;2.20;;;;;;;;;;10454987;28;20071;-46
2022/04/20 01:12:18;;;;;;;4.03;2.20;;;;;;;;;;10455480;28;20033;-46
2022/04/20 01:17:19;;;;;;;3.90;2.00;;;;;;;;;;10454107;28;20068;-45
2022/04/20 01:22:19;;;;;;;2.58;1.80;;;;;;;;;;10454453;28;20021;-46
2022/04/20 01:27:20;;;;;;;5.53;1.80;;;;;;;;;;10454262;28;20036;-41
2022/04/20 01:32:21;;;;;;;2.20;2.00;;;;;;;;;;10436159;28;20036;-47
2022/04/20 01:37:21;;;;;;;3.90;1.98;;;;;;;;;;10453772;28;20036;-48
2022/04/20 01:42:22;;;;;;;3.13;2.00;;;;;;;;;;10453921;28;20037;-47
2022/04/20 01:47:26;;;;;;;5.25;2.10;;;;;;;;;;10451474;28;20028;-47
2022/04/20 01:52:26;;;;;;;3.95;2.40;;;;;;;;;;10448174;28;20037;-46
2022/04/20 01:57:27;;;;;;;2.85;2.00;;;;;;;;;;10452245;28;20091;-43
2022/04/20 02:02:40;;;;;;;4.70;2.00;;;;;;;;;;10453036;28;20582;-45
2022/04/20 02:07:41;;;;;;;6.28;2.15;;;;;;;;;;10452676;28;20146;-48
2022/04/20 02:12:42;;;;;;;5.15;2.00;;;;;;;;;;10452255;28;20087;-49
2022/04/20 02:17:42;;;;;;;3.67;2.10;;;;;;;;;;10452428;28;20439;-47
2022/04/20 02:22:43;;;;;;;9.25;2.38;;;;;;;;;;10451663;28;20032;-47
2022/04/20 02:27:44;;;;;;;5.38;2.10;;;;;;;;;;10451870;28;20060;-48
2022/04/20 02:32:44;;;;;;;3.53;1.92;;;;;;;;;;10451847;28;20029;-47
2022/04/20 02:37:45;;;;;;;4.07;1.95;;;;;;;;;;10451102;28;20392;-47
2022/04/20 02:42:46;;;;;;;4.03;1.90;;;;;;;;;;10451503;28;20626;-50
2022/04/20 02:47:46;;;;;;;5.05;1.90;;;;;;;;;;10422108;28;20017;-48
2022/04/20 02:52:47;;;;;;;4.20;2.03;;;;;;;;;;10428011;28;20032;-46
2022/04/20 02:57:48;;;;;;;6.03;2.08;;;;;;;;;;10450656;28;20044;-45
2022/04/20 03:02:48;;;;;;;2.97;1.85;;;;;;;;;;10450857;28;20021;-44
2022/04/20 03:07:49;;;;;;;6.68;1.90;;;;;;;;;;10431882;28;20041;-41
2022/04/20 03:12:50;;;;;;;3.88;2.00;;;;;;;;;;10450472;28;20036;-40
2022/04/20 03:17:51;;;;;;;3.50;1.98;;;;;;;;;;10450239;28;20029;-44
2022/04/20 03:22:51;;;;;;;3.20;1.73;;;;;;;;;;10449242;28;20048;-47
2022/04/20 03:27:52;;;;;;;3.67;1.88;;;;;;;;;;10449935;28;20033;-47
2022/04/20 03:32:52;;;;;;;2.22;1.75;;;;;;;;;;10449412;28;20040;-48
2022/04/20 03:37:53;;;;;;;2.47;1.95;;;;;;;;;;10449499;28;20024;-48
2022/04/20 03:42:54;;;;;;;2.13;1.73;;;;;;;;;;10449682;28;20033;-47
2022/04/20 03:47:54;;;;;;;2.50;1.83;;;;;;;;;;10449185;28;20438;-48
2022/04/20 03:52:55;;;;;;;2.67;1.65;;;;;;;;;;10449434;28;20183;-47
2022/04/20 03:57:55;;;;;;;3.08;1.85;;;;;;;;;;10449132;28;20055;-48
2022/04/20 04:02:56;;;;;;;2.88;1.63;;;;;;;;;;10448742;28;20635;-44
2022/04/20 04:07:57;;;;;;;1.60;1.42;;;;;;;;;;10449022;28;20028;-44
2022/04/20 04:12:58;;;;;;;3.60;1.60;;;;;;;;;;10449120;28;20068;-43
2022/04/20 04:18:02;;;;;;;2.08;1.50;;;;;;;;;;10431988;28;20041;-46
2022/04/20 04:23:23;;;;;;;2.10;1.70;;;;;;;;;;10456974;28;20017;-47
2022/04/20 04:28:23;;;;;;;3.25;1.83;;;;;;;;;;10287907;28;20043;-47
2022/04/20 04:33:24;;;;;;;2.35;1.52;;;;;;;;;;10287493;28;20043;-47
2022/04/20 04:38:25;;;;;;;2.10;1.80;;;;;;;;;;10287229;28;20490;-49
2022/04/20 04:43:25;;;;;;;1.50;1.40;;;;;;;;;;10286150;28;20042;-44
2022/04/20 04:48:42;;;;;;;3.05;1.60;;;;;;;;;;10286802;28;20037;-43
2022/04/20 04:53:43;;;;;;;2.65;1.85;;;;;;;;;;10285272;28;20043;-42
2022/04/20 04:58:43;;;;;;;2.78;1.55;;;;;;;;;;10284129;28;20050;-42
2022/04/20 05:03:44;;;;;;;1.77;1.50;;;;;;;;;;10338619;28;20045;-47
2022/04/20 05:08:45;;;;;;;2.40;1.40;;;;;;;;;;10411620;28;20041;-45
2022/04/20 05:13:45;;;;;;;2.40;1.30;;;;;;;;;;10429385;28;20041;-47
2022/04/20 05:18:46;;;;;;;2.45;1.58;;;;;;;;;;10478220;28;20048;-48
2022/04/20 05:23:46;;;;;;;4.55;1.45;;;;;;;;;;10454659;28;20036;-46
2022/04/20 05:28:47;;;;;;;3.78;1.45;;;;;;;;;;10445464;28;20029;-42
2022/04/20 05:33:49;;;;;;;3.55;1.58;;;;;;;;;;10457414;28;20028;-41
2022/04/20 05:44:10;;;;;;;4.93;1.60;;;;;;;;;;10457379;28;20036;-41
2022/04/20 05:49:11;;;;;;;2.58;1.60;;;;;;;;;;10444272;28;20511;-41
2022/04/20 05:54:12;;;;;;;6.10;1.40;;;;;;;;;;10442944;28;20052;-49
2022/04/20 05:59:13;;;;;;;6.35;1.40;;;;;;;;;;10435796;28;20037;-45
2022/04/20 06:04:14;;;;;;;4.25;1.58;;;;;;;;;;10452231;28;20040;-47
2022/04/20 06:09:14;;;;;;;3.65;2.00;;;;;;;;;;10437687;28;20029;-50
2022/04/20 06:14:15;;;;;;;5.25;1.92;;;;;;;;;;10435627;28;20025;-45
2022/04/20 06:19:16;;;;;;;7.18;2.08;;;;;;;;;;10433683;28;20079;-43
2022/04/20 06:24:16;;;;;;;13.32;1.65;;;;;;;;;;10419076;28;20037;-48
2022/04/20 06:29:17;;;;;;;11.32;2.10;;;;;;;;;;10448468;28;20040;-47
2022/04/20 06:34:19;;;;;;;15.77;2.38;;;;;;;;;;10451701;28;20032;-49
2022/04/20 06:39:19;;;;;;;8.27;2.20;;;;;;;;;;10451405;28;20100;-47
2022/04/20 06:44:20;;;;;;;5.82;2.08;;;;;;;;;;10450262;28;20040;-45
2022/04/20 06:49:21;;;;;;;9.00;1.98;;;;;;;;;;10433299;28;20068;-46
2022/04/20 06:59:40;;;;;;;9.73;2.05;;;;;;;;;;10450222;28;20044;-46
2022/04/20 07:04:41;;;;;;;9.25;1.63;;;;;;;;;;10450613;28;20033;-49
2022/04/20 07:09:42;;;;;;;11.93;2.28;;;;;;;;;;10450516;28;20025;-47
2022/04/20 07:14:42;;;;;;;8.63;1.65;;;;;;;;;;10449855;28;20040;-44
2022/04/20 07:19:43;;;;;;;9.55;2.00;;;;;;;;;;10449848;28;20040;-44
2022/04/20 07:24:43;;;;;;;6.03;2.00;;;;;;;;;;10449987;28;20025;-45
2022/04/20 07:29:44;;;;;;;4.68;1.80;;;;;;;;;;10450040;28;20025;-47
2022/04/20 07:34:45;;;;;;;7.13;1.95;;;;;;;;;;10449460;28;20036;-44
2022/04/20 07:39:45;;;;;;;6.18;2.15;;;;;;;;;;10449782;28;20041;-47
2022/04/20 07:44:46;;;;;;;6.50;2.00;;;;;;;;;;10449392;28;20044;-47
2022/04/20 07:55:11;;;;;;;6.55;1.77;;;;;;;;;;10456488;28;20483;-45
2022/04/20 08:00:14;;;;;;;7.50;1.65;;;;;;;;;;10456534;28;20059;-45
2022/04/20 08:05:19;;;;;;;4.18;1.65;;;;;;;;;;10457265;28;20037;-45
2022/04/20 08:10:19;;;;;;;2.58;1.70;;;;;;;;;;10457327;28;20033;-45
2022/04/20 08:15:20;;;;;;;3.83;1.80;;;;;;;;;;10456818;28;20074;-48
2022/04/20 08:20:20;;;;;;;6.18;1.70;;;;;;;;;;10456912;28;20388;-45
2022/04/20 08:25:21;;;;;;;5.72;1.77;;;;;;;;;;10456747;28;20017;-47
2022/04/20 08:30:22;;;;;;;1.30;1.13;;;;;;;;;;10456480;28;20368;-46
2022/04/20 08:35:22;;;;;;;7.60;1.60;;;;;;;;;;10456298;28;20558;-49
2022/04/20 08:40:24;;;;;;;2.88;1.08;;;;;;;;;;10456451;28;20428;-44
2022/04/20 08:45:28;;;;;;;3.10;1.10;;;;;;;;;;10455844;28;20463;-47
2022/04/20 08:50:29;;;;;;;4.93;1.50;;;;;;;;;;10438018;28;20575;-45
2022/04/20 08:55:29;;;;;;;1.75;1.48;;;;;;;;;;10455324;28;20043;-45
2022/04/20 09:00:30;;;;;;;4.53;1.40;;;;;;;;;;10455397;28;20040;-45
2022/04/20 09:05:34;;;;;;;5.13;1.38;;;;;;;;;;10454044;28;20041;-46
2022/04/20 09:10:36;;;;;;;4.03;1.60;;;;;;;;;;10455031;28;20029;-45
2022/04/20 09:15:39;;;;;;;8.50;2.00;;;;;;;;;;10454761;28;20436;-46
2022/04/20 09:20:40;;;;;;;1.58;1.20;;;;;;;;;;10454613;28;20032;-50
2022/04/20 09:25:48;;;;;;;3.88;1.40;;;;;;;;;;10454425;28;20031;-48
2022/04/20 09:30:51;;;;;;;2.93;1.53;;;;;;;;;;10454352;28;20111;-51
2022/04/20 09:35:53;;;;;;;3.40;1.40;;;;;;;;;;10454125;28;20024;-45
2022/04/20 09:41:08;;;;;;;2.67;1.58;;;;;;;;;;10453918;28;20037;-45
2022/04/20 09:51:41;;;;;;;4.22;1.38;;;;;;;;;;10454096;28;20021;-47
2022/04/20 09:56:42;;;;;;;4.40;1.60;;;;;;;;;;10453025;28;20123;-45
2022/04/20 10:01:45;;;;;;;4.20;1.48;;;;;;;;;;10453310;28;20477;-46
2022/04/20 10:06:46;;;;;;;4.07;1.40;;;;;;;;;;10452295;28;20029;-46
2022/04/20 10:11:47;;;;;;;4.65;1.77;;;;;;;;;;10452264;28;20025;-47
2022/04/20 10:16:51;;;;;;;4.15;1.45;;;;;;;;;;10452446;28;20033;-49
2022/04/20 10:21:53;;;;;;;2.70;1.48;;;;;;;;;;10452467;28;20029;-48
2022/04/20 10:26:59;;;;;;;2.22;1.67;;;;;;;;;;10430948;28;20096;-48
2022/04/20 10:32:06;;;;;;;3.42;1.30;;;;;;;;;;10409029;28;20030;-50
2022/04/20 10:37:09;;;;;;;3.17;1.50;;;;;;;;;;10392978;28;20041;-48
2022/04/20 10:42:10;;;;;;;5.50;1.40;;;;;;;;;;10437640;28;20489;-52
2022/04/20 10:47:23;;;;;;;2.80;1.30;;;;;;;;;;10443908;28;20034;-51
2022/04/20 10:52:36;;;;;;;4.70;1.20;;;;;;;;;;10409983;28;20029;-50
2022/04/20 10:57:40;;;;;;;2.28;1.30;;;;;;;;;;10438488;28;20109;-49
2022/04/20 11:02:51;;;;;;;6.15;1.50;;;;;;;;;;10445438;28;20192;-48
2022/04/20 11:08:14;;;;;;;4.90;1.20;;;;;;;;;;10409265;28;20052;-49
2022/04/20 11:18:58;;;;;;;3.13;1.50;;;;;;;;;;10408671;28;20037;-48
2022/04/20 11:24:11;;;;;;;5.80;1.42;;;;;;;;;;10406710;28;20053;-47
2022/04/20 11:29:17;;;;;;;4.15;1.65;;;;;;;;;;10411534;28;20029;-45
2022/04/20 11:34:20;;;;;;;5.45;1.67;;;;;;;;;;10438033;28;20070;-48
2022/04/20 11:39:25;;;;;;;7.70;1.75;;;;;;;;;;10408842;28;20037;-47
2022/04/20 11:44:36;;;;;;;4.50;1.92;;;;;;;;;;10416826;28;20029;-45
2022/04/20 11:49:46;;;;;;;3.90;1.38;;;;;;;;;;10448736;28;20503;-50
2022/04/20 11:54:47;;;;;;;4.55;1.40;;;;;;;;;;10438573;28;20073;-50
2022/04/20 11:59:50;;;;;;;6.63;1.30;;;;;;;;;;10423190;28;20129;-47
2022/04/20 12:05:10;;;;;;;3.17;1.35;;;;;;;;;;10414877;28;20459;-45
2022/04/20 12:10:10;;;;;;;2.83;1.42;;;;;;;;;;10410303;28;20136;-47
2022/04/20 12:15:12;;;;;;;6.35;1.38;;;;;;;;;;10410856;28;20048;-45
2022/04/20 12:20:13;;;;;;;4.63;1.90;;;;;;;;;;10412963;28;20086;-46
2022/04/20 12:25:19;;;;;;;4.25;1.42;;;;;;;;;;10432410;28;20086;-50
2022/04/20 12:30:44;;;;;;;2.35;1.20;;;;;;;;;;10460896;28;20040;-44
2022/04/20 12:36:01;;;;;;;3.42;1.55;;;;;;;;;;10448448;28;20610;-46
2022/04/20 12:41:02;;;;;;;5.18;1.65;;;;;;;;;;10420368;28;20029;-45
2022/04/20 12:46:14;;;;;;;5.53;1.60;;;;;;;;;;10467538;28;20036;-45
2022/04/20 12:51:23;;;;;;;6.88;1.75;;;;;;;;;;10435451;28;20109;-45
2022/04/20 13:07:02;;;;;;;6.32;1.52;;;;;;;;;;10440860;28;20041;-47
2022/04/20 13:12:03;;;;;;;2.15;1.30;;;;;;;;;;10454449;28;20021;-49
2022/04/20 13:17:09;;;;;;;3.30;1.27;;;;;;;;;;10445865;28;20030;-51
2022/04/20 13:22:10;;;;;;;3.33;1.58;;;;;;;;;;10413865;28;20029;-50
2022/04/20 13:32:30;;;;;;;4.65;1.52;;;;;;;;;;10410031;28;20436;-46
2022/04/20 13:37:30;;;;;;;2.55;1.25;;;;;;;;;;10419684;28;20029;-46
2022/04/20 13:42:32;;;;;;;2.42;1.27;;;;;;;;;;10412569;28;20382;-48
2022/04/20 13:47:33;;;;;;;6.18;1.50;;;;;;;;;;10412324;28;20029;-46
2022/04/20 13:52:38;;;;;;;2.25;1.13;;;;;;;;;;10435423;28;20107;-45
2022/04/20 13:57:39;;;;;;;4.13;1.52;;;;;;;;;;10460541;28;20052;-48
2022/04/20 14:02:41;;;;;;;2.25;1.45;;;;;;;;;;10492009;28;20032;-45
2022/04/20 14:07:41;;;;;;;2.75;1.17;;;;;;;;;;10471757;28;20040;-48
2022/04/20 14:12:42;;;;;;;5.18;1.55;;;;;;;;;;10451619;28;20036;-46
2022/04/20 14:17:44;;;;;;;4.78;1.35;;;;;;;;;;10452207;28;20033;-46
2022/04/20 14:22:45;;;;;;;3.85;1.13;;;;;;;;;;10452304;28;20615;-48
2022/04/20 14:33:05;;;;;;;5.85;1.55;;;;;;;;;;10451574;28;20029;-49
2022/04/20 14:38:05;;;;;;;4.47;1.23;;;;;;;;;;10451269;28;20041;-44
2022/04/20 14:43:06;;;;;;;1.02;1.00;;;;;;;;;;10449840;28;20025;-45
2022/04/20 14:48:06;;;;;;;1.80;1.15;;;;;;;;;;10449950;28;20041;-45
2022/04/20 14:53:08;;;;;;;2.28;1.60;;;;;;;;;;10450588;28;20500;-50
2022/04/20 14:58:08;;;;;;;4.60;1.40;;;;;;;;;;10444518;28;20061;-45
2022/04/20 15:03:09;;;;;;;5.07;1.35;;;;;;;;;;10427202;28;20026;-46
2022/04/20 15:08:11;;;;;;;5.65;1.30;;;;;;;;;;10408678;28;20033;-44
2022/04/20 15:13:12;;;;;;;1.45;1.30;;;;;;;;;;10416377;28;20104;-48
2022/04/20 15:18:13;;;;;;;2.25;1.40;;;;;;;;;;10409002;28;20083;-51
2022/04/20 15:23:14;;;;;;;2.20;1.35;;;;;;;;;;10408662;28;20026;-46
2022/04/20 15:28:15;;;;;;;3.55;1.42;;;;;;;;;;10430145;28;20465;-45
2022/04/20 15:33:15;;;;;;;4.70;1.17;;;;;;;;;;10438272;28;20040;-45
2022/04/20 15:38:16;;;;;;;2.13;1.10;;;;;;;;;;10447196;28;20033;-45
2022/04/20 15:43:17;;;;;;;6.15;1.30;;;;;;;;;;10447140;28;20025;-47
2022/04/20 15:48:19;;;;;;;2.72;1.05;;;;;;;;;;10449281;28;20058;-45
2022/04/20 15:53:19;;;;;;;2.17;1.10;;;;;;;;;;10484052;28;20488;-46
2022/04/20 16:03:39;;;;;;;1.40;1.00;;;;;;;;;;10445866;28;20033;-48
2022/04/20 16:08:40;;;;;;;2.58;1.35;;;;;;;;;;10449010;28;20032;-45
2022/04/20 16:13:40;;;;;;;4.30;1.23;;;;;;;;;;10451171;28;20520;-45
2022/04/20 16:18:41;;;;;;;5.25;1.40;;;;;;;;;;10432030;28;20381;-46
2022/04/20 16:23:41;;;;;;;4.65;1.00;;;;;;;;;;10456888;28;20021;-45
2022/04/20 16:28:42;;;;;;;1.85;1.10;;;;;;;;;;10452813;28;20041;-46
2022/04/20 16:33:42;;;;;;;2.85;1.20;;;;;;;;;;10452730;28;20078;-45
2022/04/20 16:38:43;;;;;;;1.45;1.23;;;;;;;;;;10420404;28;20037;-46
2022/04/20 16:43:44;;;;;;;5.30;1.30;;;;;;;;;;10451081;28;20040;-48
2022/04/20 16:48:45;;;;;;;0.77;0.77;;;;;;;;;;10455227;28;20040;-45
2022/04/20 16:53:46;;;;;;;2.88;1.02;;;;;;;;;;10454021;28;20044;-45
2022/04/20 16:58:49;;;;;;;2.47;1.17;;;;;;;;;;10454108;28;20045;-45
2022/04/20 17:03:50;;;;;;;2.13;1.10;;;;;;;;;;10455724;28;20033;-45
2022/04/20 17:08:51;;;;;;;3.50;1.33;;;;;;;;;;10454553;28;20139;-45
2022/04/20 17:13:51;;;;;;;1.50;1.20;;;;;;;;;;10454986;28;20083;-45
2022/04/20 17:18:53;;;;;;;6.88;1.45;;;;;;;;;;10455132;28;20041;-44
2022/04/20 17:29:13;;;;;;;1.77;1.20;;;;;;;;;;10454968;28;20032;-46
2022/04/20 17:34:13;;;;;;;1.65;1.02;;;;;;;;;;10436185;28;20472;-45
2022/04/20 17:39:25;;;;;;;4.07;1.52;;;;;;;;;;10451789;28;20124;-44
2022/04/20 17:44:26;;;;;;;2.10;1.23;;;;;;;;;;10432341;28;20032;-44
2022/04/20 17:49:27;;;;;;;2.70;1.20;;;;;;;;;;10443971;28;20397;-44
2022/04/20 17:54:28;;;;;;;10.45;1.35;;;;;;;;;;10435798;28;20071;-43
2022/04/20 17:59:28;;;;;;;4.95;1.25;;;;;;;;;;10445596;28;20056;-43
2022/04/20 18:04:29;;;;;;;3.67;1.05;;;;;;;;;;10444423;28;20094;-41
2022/04/20 18:09:30;;;;;;;3.05;1.30;;;;;;;;;;10452535;28;20272;-42
2022/04/20 18:14:30;;;;;;;7.10;1.83;;;;;;;;;;10441016;28;20039;-45
2022/04/20 18:19:32;;;;;;;4.13;1.60;;;;;;;;;;10437010;28;20437;-45
2022/04/20 18:24:33;;;;;;;4.72;1.70;;;;;;;;;;10425144;28;20113;-48
2022/04/20 18:29:34;;;;;;;3.80;1.63;;;;;;;;;;10419736;28;20457;-47
2022/04/20 18:34:37;;;;;;;11.68;1.67;;;;;;;;;;10436125;28;20698;-45
2022/04/20 18:39:38;;;;;;;13.57;2.35;;;;;;;;;;10447497;28;20033;-44
2022/04/20 18:44:38;;;;;;;9.70;2.78;;;;;;;;;;10450654;28;20049;-44
2022/04/20 18:49:39;;;;;;;9.07;3.05;;;;;;;;;;10451052;28;20029;-45
2022/04/20 18:59:59;;;;;;;7.57;2.40;;;;;;;;;;10449738;28;20044;-45
2022/04/20 19:05:01;;;;;;;12.38;2.72;;;;;;;;;;10450907;28;20041;-45
2022/04/20 19:10:03;;;;;;;8.75;2.20;;;;;;;;;;10450234;28;20388;-45
2022/04/20 19:15:05;;;;;;;9.05;2.20;;;;;;;;;;10450073;28;20094;-47
2022/04/20 19:20:13;;;;;;;8.60;2.63;;;;;;;;;;10450114;28;20182;-45
2022/04/20 19:25:14;;;;;;;7.43;2.17;;;;;;;;;;10450050;28;20025;-44
2022/04/20 19:30:14;;;;;;;5.13;1.90;;;;;;;;;;10449826;28;20485;-44
2022/04/20 19:35:15;;;;;;;5.03;2.08;;;;;;;;;;10449637;28;20072;-46
2022/04/20 19:40:16;;;;;;;11.60;2.20;;;;;;;;;;10449700;28;20029;-45
2022/04/20 19:45:16;;;;;;;7.82;2.72;;;;;;;;;;10449015;28;20021;-49
2022/04/20 19:50:18;;;;;;;7.38;2.10;;;;;;;;;;10449417;28;20029;-47
2022/04/20 19:55:18;;;;;;;7.15;1.92;;;;;;;;;;10463208;28;20020;-48
2022/04/20 20:00:20;;;;;;;4.53;2.30;;;;;;;;;;10473498;28;20673;-45
2022/04/20 20:05:22;;;;;;;5.68;1.85;;;;;;;;;;10458711;28;20536;-46
2022/04/20 20:10:23;;;;;;;5.68;2.10;;;;;;;;;;10472301;28;20025;-47
2022/04/20 20:15:23;;;;;;;4.95;1.88;;;;;;;;;;10468283;28;20032;-46
2022/04/20 20:20:25;;;;;;;3.25;1.65;;;;;;;;;;10454045;28;20055;-48
2022/04/20 20:30:45;;;;;;;7.10;2.38;;;;;;;;;;10472780;28;20021;-46
2022/04/20 20:35:45;;;;;;;8.05;1.83;;;;;;;;;;10465478;28;20522;-47
2022/04/20 20:40:46;;;;;;;4.35;1.38;;;;;;;;;;10474272;28;20361;-47
2022/04/20 20:45:46;;;;;;;2.83;1.38;;;;;;;;;;10464691;28;20392;-44
2022/04/20 20:50:47;;;;;;;4.70;1.98;;;;;;;;;;10462355;28;20033;-46
2022/04/20 20:55:47;;;;;;;7.13;1.42;;;;;;;;;;10464472;28;20056;-45
2022/04/20 21:00:48;;;;;;;3.85;1.83;;;;;;;;;;10467282;28;20029;-46
2022/04/20 21:05:48;;;;;;;2.97;1.73;;;;;;;;;;10471145;28;20036;-46
2022/04/20 21:10:49;;;;;;;5.93;1.75;;;;;;;;;;10454766;28;20033;-45
2022/04/20 21:15:50;;;;;;;6.55;1.98;;;;;;;;;;10459181;28;20134;-44
2022/04/20 21:20:50;;;;;;;3.28;1.77;;;;;;;;;;10419646;28;20029;-45
2022/04/20 21:26:11;;;;;;;5.05;1.70;;;;;;;;;;10446469;28;20102;-45
2022/04/20 21:31:13;;;;;;;4.40;1.42;;;;;;;;;;10272340;28;20066;-46
2022/04/20 21:36:13;;;;;;;4.45;2.20;;;;;;;;;;10282600;28;20034;-47
2022/04/20 21:41:15;;;;;;;9.48;2.25;;;;;;;;;;10265116;28;20439;-48
2022/04/20 21:46:16;;;;;;;7.50;2.75;;;;;;;;;;10270888;28;22043;-43
2022/04/20 21:51:18;;;;;;;6.45;2.63;;;;;;;;;;10267282;28;20066;-44
2022/04/20 21:56:19;;;;;;;5.65;2.30;;;;;;;;;;10273653;28;20138;-45
2022/04/20 22:01:21;;;;;;;11.18;2.33;;;;;;;;;;10268868;28;20034;-46
2022/04/20 22:12:01;;;;;;;5.68;2.42;;;;;;;;;;10426447;28;20118;-43
2022/04/20 22:17:09;;;;;;;6.22;3.08;;;;;;;;;;10435128;28;20044;-43
2022/04/20 22:22:10;;;;;;;6.35;2.22;;;;;;;;;;10435651;28;20396;-46
2022/04/20 22:27:10;;;;;;;15.15;2.70;;;;;;;;;;10440696;28;20047;-46
2022/04/20 22:32:11;;;;;;;7.38;2.85;;;;;;;;;;10434578;28;20052;-43
2022/04/20 22:37:11;;;;;;;5.93;2.38;;;;;;;;;;10428879;28;20033;-44
2022/04/20 22:42:12;;;;;;;10.15;2.90;;;;;;;;;;10430623;28;20028;-43
2022/04/20 22:47:13;;;;;;;6.78;2.83;;;;;;;;;;10421153;28;20032;-43
2022/04/20 22:52:13;;;;;;;8.88;2.72;;;;;;;;;;10438855;28;20544;-44
2022/04/20 22:57:14;;;;;;;10.43;3.13;;;;;;;;;;10407218;28;20066;-43
2022/04/20 23:02:14;;;;;;;8.75;2.63;;;;;;;;;;10435630;28;20473;-49
2022/04/20 23:07:16;;;;;;;7.03;2.10;;;;;;;;;;10429381;28;20024;-41
2022/04/20 23:12:17;;;;;;;9.13;2.50;;;;;;;;;;10437000;28;20040;-48
2022/04/20 23:17:17;;;;;;;4.78;2.50;;;;;;;;;;10427266;28;20060;-45
2022/04/20 23:22:18;;;;;;;6.18;2.55;;;;;;;;;;10424916;28;20032;-53
2022/04/20 23:32:37;;;;;;;5.88;2.50;;;;;;;;;;10425586;28;20075;-50
2022/04/20 23:37:38;;;;;;;5.57;2.53;;;;;;;;;;10424405;28;20029;-42
2022/04/20 23:42:39;;;;;;;6.05;2.30;;;;;;;;;;10433977;28;20385;-42
2022/04/20 23:47:40;;;;;;;8.05;2.95;;;;;;;;;;10435803;28;20457;-45
2022/04/20 23:52:40;;;;;;;5.63;2.50;;;;;;;;;;10430048;28;20036;-55
2022/04/20 23:57:41;;;;;;;6.78;2.28;;;;;;;;;;10427662;28;20115;-53
